This is the latest recevied weather packets stored in our database for station/object K5OBH. If no packets are shown the sender has not sent any weather packets the latest 10 day(s).
| Time | Temp. | Humidity | Pressure | Rain* | Wind** | Luminosity | Snow |
|---|---|---|---|---|---|---|---|
| 1778169907 | 17.78° C | 52% | 1018.9 hPa | 0 mm | - | 603 W/m² | - |
| 1778169603 | 17.22° C | 53% | 1019.2 hPa | 0 mm | - | 591 W/m² | - |
| 1778169299 | 17.22° C | 52% | 1019 hPa | 0 mm | - | 566 W/m² | - |
| 1778168996 | 17.22° C | 52% | 1019.3 hPa | 0 mm | - | 566 W/m² | - |
| 1778168693 | 16.11° C | 54% | 1018.9 hPa | 0 mm | - | 552 W/m² | - |
| 1778168390 | 16.11° C | 53% | 1019 hPa | 0 mm | - | 538 W/m² | - |
| 1778168087 | 16.11° C | 53% | 1018.9 hPa | 0 mm | - | 524 W/m² | - |
| 1778167783 | 16.67° C | 51% | 1019 hPa | 0 mm | - | 513 W/m² | - |
| 1778167479 | 16.11° C | 53% | 1018.9 hPa | 0 mm | - | 499 W/m² | - |
| 1778167175 | 16.11° C | 51% | 1019.2 hPa | 0 mm | - | 484 W/m² | - |
| 1778166872 | 15.56° C | 57% | 1019 hPa | 0 mm | - | 467 W/m² | - |
| 1778166569 | 15.56° C | 56% | 1019.6 hPa | 0 mm | - | 452 W/m² | - |
| 1778166266 | 15.56° C | 57% | 1019.6 hPa | 0 mm | - | 436 W/m² | - |
| 1778165962 | 15.56° C | 57% | 1019.7 hPa | 0 mm | - | 421 W/m² | - |
| 1778165658 | 15° C | 58% | 1019.7 hPa | 0 mm | - | 405 W/m² | - |
| 1778165355 | 15° C | 56% | 1019.5 hPa | 0 mm | - | 391 W/m² | - |
| 1778165052 | 15° C | 55% | 1019.6 hPa | 0 mm | - | 377 W/m² | - |
| 1778164749 | 15° C | 57% | 1019.6 hPa | 0 mm | - | 360 W/m² | - |
| 1778164446 | 14.44° C | 62% | 1019.9 hPa | 0 mm | - | 340 W/m² | - |
| 1778164143 | 15° C | 60% | 1019.8 hPa | 0 mm | - | 324 W/m² | - |
| 1778163839 | 14.44° C | 63% | 1019.9 hPa | 0 mm | - | 313 W/m² | - |
| 1778163536 | 13.33° C | 66% | 1019.9 hPa | 0 mm | - | 290 W/m² | - |
| 1778163232 | 14.44° C | 62% | 1019.9 hPa | 0 mm | - | 284 W/m² | - |
| 1778162929 | 13.89° C | 65% | 1019.9 hPa | 0 mm | - | 269 W/m² | - |
| 1778162625 | 13.33° C | 68% | 1019.8 hPa | 0 mm | - | 252 W/m² | - |
* Rain latest hour (hover to see other rain measurements)
** Current wind speed in m/s (hover to see current wind gust speed)